sensor_id;sensor_type;location;lat;lon;timestamp;P1;P2;P0
72031;PMS5003;49185;42.320;23.198;2023-09-18T00:01:42;29.00;27.67;15.00
72031;PMS5003;49185;42.320;23.198;2023-09-18T00:04:07;30.00;27.00;14.00
72031;PMS5003;49185;42.320;23.198;2023-09-18T00:06:33;32.00;27.00;13.00
72031;PMS5003;49185;42.320;23.198;2023-09-18T00:08:58;29.00;25.00;13.00
72031;PMS5003;49185;42.320;23.198;2023-09-18T00:11:24;28.00;25.00;13.00
72031;PMS5003;49185;42.320;23.198;2023-09-18T00:13:50;30.50;26.50;12.50
72031;PMS5003;49185;42.320;23.198;2023-09-18T00:16:15;31.00;25.00;12.00
72031;PMS5003;49185;42.320;23.198;2023-09-18T00:18:41;30.00;27.00;14.00
72031;PMS5003;49185;42.320;23.198;2023-09-18T00:21:06;30.00;29.00;13.00
72031;PMS5003;49185;42.320;23.198;2023-09-18T00:23:32;31.00;29.00;14.00
72031;PMS5003;49185;42.320;23.198;2023-09-18T00:25:57;33.00;29.00;14.00
72031;PMS5003;49185;42.320;23.198;2023-09-18T00:28:22;33.00;29.00;14.00
72031;PMS5003;49185;42.320;23.198;2023-09-18T00:30:48;33.33;29.33;14.67
72031;PMS5003;49185;42.320;23.198;2023-09-18T00:33:15;32.00;30.00;16.75
72031;PMS5003;49185;42.320;23.198;2023-09-18T00:35:45;33.75;30.00;19.00
72031;PMS5003;49185;42.320;23.198;2023-09-18T00:38:11;34.25;29.00;16.00
72031;PMS5003;49185;42.320;23.198;2023-09-18T00:40:36;33.33;29.00;14.67
72031;PMS5003;49185;42.320;23.198;2023-09-18T00:43:02;31.50;29.00;14.50
72031;PMS5003;49185;42.320;23.198;2023-09-18T00:45:28;36.00;29.00;16.67
72031;PMS5003;49185;42.320;23.198;2023-09-18T00:47:54;34.00;30.00;17.00
72031;PMS5003;49185;42.320;23.198;2023-09-18T00:50:19;33.00;30.00;18.00
72031;PMS5003;49185;42.320;23.198;2023-09-18T00:52:46;34.50;31.50;18.50
72031;PMS5003;49185;42.320;23.198;2023-09-18T00:55:11;32.67;29.00;17.00
72031;PMS5003;49185;42.320;23.198;2023-09-18T00:57:37;33.00;30.00;16.00
72031;PMS5003;49185;42.320;23.198;2023-09-18T01:00:03;30.50;27.50;15.25
72031;PMS5003;49185;42.320;23.198;2023-09-18T01:02:29;28.50;26.75;16.00
72031;PMS5003;49185;42.320;23.198;2023-09-18T01:04:55;28.67;27.00;14.00
72031;PMS5003;49185;42.320;23.198;2023-09-18T01:07:20;29.75;27.00;14.00
72031;PMS5003;49185;42.320;23.198;2023-09-18T01:09:46;29.00;27.00;14.67
72031;PMS5003;49185;42.320;23.198;2023-09-18T01:17:18;30.00;28.00;15.75
72031;PMS5003;49185;42.320;23.198;2023-09-18T01:19:44;32.33;29.00;16.00
72031;PMS5003;49185;42.320;23.198;2023-09-18T01:22:11;33.00;29.00;16.00
72031;PMS5003;49185;42.320;23.198;2023-09-18T01:24:39;31.00;29.00;17.00
72031;PMS5003;49185;42.320;23.198;2023-09-18T01:27:07;30.25;29.00;16.00
72031;PMS5003;49185;42.320;23.198;2023-09-18T01:29:34;32.50;28.50;15.50
72031;PMS5003;49185;42.320;23.198;2023-09-18T01:32:00;33.00;29.00;14.00
72031;PMS5003;49185;42.320;23.198;2023-09-18T01:34:25;32.67;29.00;15.33
72031;PMS5003;49185;42.320;23.198;2023-09-18T01:36:55;33.50;28.25;16.00
72031;PMS5003;49185;42.320;23.198;2023-09-18T01:39:22;36.00;30.50;15.00
72031;PMS5003;49185;42.320;23.198;2023-09-18T01:41:49;35.50;30.50;14.00
72031;PMS5003;49185;42.320;23.198;2023-09-18T01:44:15;36.00;31.00;14.00
72031;PMS5003;49185;42.320;23.198;2023-09-18T01:46:40;34.00;29.00;14.00
72031;PMS5003;49185;42.320;23.198;2023-09-18T01:49:07;36.00;29.75;15.00
72031;PMS5003;49185;42.320;23.198;2023-09-18T01:51:33;35.00;31.00;16.00
72031;PMS5003;49185;42.320;23.198;2023-09-18T01:53:58;33.00;30.00;18.00
72031;PMS5003;49185;42.320;23.198;2023-09-18T01:56:23;35.00;30.00;17.00
72031;PMS5003;49185;42.320;23.198;2023-09-18T01:58:49;31.00;28.00;15.00
72031;PMS5003;49185;42.320;23.198;2023-09-18T02:01:15;32.67;28.00;16.67
72031;PMS5003;49185;42.320;23.198;2023-09-18T02:03:40;32.00;30.00;16.00
72031;PMS5003;49185;42.320;23.198;2023-09-18T02:06:06;35.00;31.00;17.33
72031;PMS5003;49185;42.320;23.198;2023-09-18T02:08:31;36.33;30.33;17.00
72031;PMS5003;49185;42.320;23.198;2023-09-18T02:10:56;36.67;31.00;16.00
72031;PMS5003;49185;42.320;23.198;2023-09-18T02:13:22;37.67;31.33;16.33
72031;PMS5003;49185;42.320;23.198;2023-09-18T02:15:47;34.67;31.00;17.33
72031;PMS5003;49185;42.320;23.198;2023-09-18T02:18:13;37.33;31.33;17.00
72031;PMS5003;49185;42.320;23.198;2023-09-18T02:20:39;36.00;31.00;16.00
72031;PMS5003;49185;42.320;23.198;2023-09-18T02:23:06;35.25;30.00;16.00
72031;PMS5003;49185;42.320;23.198;2023-09-18T02:25:31;34.33;29.00;16.00
72031;PMS5003;49185;42.320;23.198;2023-09-18T02:27:56;35.00;32.00;16.00
72031;PMS5003;49185;42.320;23.198;2023-09-18T02:30:22;35.00;30.67;16.67
72031;PMS5003;49185;42.320;23.198;2023-09-18T02:32:47;34.00;30.00;16.00
72031;PMS5003;49185;42.320;23.198;2023-09-18T02:35:12;32.00;29.00;15.00
72031;PMS5003;49185;42.320;23.198;2023-09-18T02:37:38;32.00;29.00;15.00
72031;PMS5003;49185;42.320;23.198;2023-09-18T02:40:03;31.00;28.00;13.00
72031;PMS5003;49185;42.320;23.198;2023-09-18T02:42:29;33.25;27.75;12.50
72031;PMS5003;49185;42.320;23.198;2023-09-18T02:44:55;29.00;25.67;13.00
72031;PMS5003;49185;42.320;23.198;2023-09-18T02:47:20;32.00;26.67;12.00
72031;PMS5003;49185;42.320;23.198;2023-09-18T02:49:45;32.00;29.00;14.33
72031;PMS5003;49185;42.320;23.198;2023-09-18T02:52:11;32.33;29.33;15.33
72031;PMS5003;49185;42.320;23.198;2023-09-18T02:54:36;31.00;27.00;14.00
72031;PMS5003;49185;42.320;23.198;2023-09-18T02:57:02;31.00;27.00;13.00
72031;PMS5003;49185;42.320;23.198;2023-09-18T02:59:27;30.00;25.33;12.00
72031;PMS5003;49185;42.320;23.198;2023-09-18T03:01:53;29.00;25.00;13.00
72031;PMS5003;49185;42.320;23.198;2023-09-18T03:04:18;28.33;26.00;12.00
72031;PMS5003;49185;42.320;23.198;2023-09-18T03:06:44;30.00;27.00;13.00
72031;PMS5003;49185;42.320;23.198;2023-09-18T03:09:09;30.67;27.00;14.00
72031;PMS5003;49185;42.320;23.198;2023-09-18T03:11:34;32.00;29.00;15.00
72031;PMS5003;49185;42.320;23.198;2023-09-18T03:14:00;29.00;29.00;15.00
72031;PMS5003;49185;42.320;23.198;2023-09-18T03:16:25;32.33;30.33;15.33
72031;PMS5003;49185;42.320;23.198;2023-09-18T03:18:51;34.00;31.00;16.00
72031;PMS5003;49185;42.320;23.198;2023-09-18T03:21:16;35.00;30.67;16.00
72031;PMS5003;49185;42.320;23.198;2023-09-18T03:23:41;33.00;29.00;16.00
72031;PMS5003;49185;42.320;23.198;2023-09-18T03:26:07;33.00;30.00;17.00
72031;PMS5003;49185;42.320;23.198;2023-09-18T03:28:32;32.00;30.33;16.33
72031;PMS5003;49185;42.320;23.198;2023-09-18T03:30:58;33.00;29.00;17.00
72031;PMS5003;49185;42.320;23.198;2023-09-18T03:33:23;32.67;30.00;16.33
72031;PMS5003;49185;42.320;23.198;2023-09-18T03:35:49;28.33;28.00;16.00
72031;PMS5003;49185;42.320;23.198;2023-09-18T03:38:16;32.50;30.00;16.00
72031;PMS5003;49185;42.320;23.198;2023-09-18T03:40:42;33.75;30.75;16.75
72031;PMS5003;49185;42.320;23.198;2023-09-18T03:43:07;38.67;31.33;16.33
72031;PMS5003;49185;42.320;23.198;2023-09-18T03:45:33;34.00;30.50;16.50
72031;PMS5003;49185;42.320;23.198;2023-09-18T03:47:59;33.67;30.00;17.00
72031;PMS5003;49185;42.320;23.198;2023-09-18T03:50:24;33.00;31.00;16.33
72031;PMS5003;49185;42.320;23.198;2023-09-18T03:52:50;47.00;38.67;23.00
72031;PMS5003;49185;42.320;23.198;2023-09-18T03:55:16;48.00;39.00;23.50
72031;PMS5003;49185;42.320;23.198;2023-09-18T03:57:41;40.67;32.00;20.00
72031;PMS5003;49185;42.320;23.198;2023-09-18T04:00:07;39.00;32.50;19.00
72031;PMS5003;49185;42.320;23.198;2023-09-18T04:02:33;41.00;34.00;19.00
72031;PMS5003;49185;42.320;23.198;2023-09-18T04:04:58;37.00;32.00;19.00
72031;PMS5003;49185;42.320;23.198;2023-09-18T04:07:24;37.00;31.00;18.00
72031;PMS5003;49185;42.320;23.198;2023-09-18T04:09:49;35.00;31.00;17.00
72031;PMS5003;49185;42.320;23.198;2023-09-18T04:12:15;30.67;29.00;15.67
72031;PMS5003;49185;42.320;23.198;2023-09-18T04:14:40;33.67;29.00;13.00
72031;PMS5003;49185;42.320;23.198;2023-09-18T04:17:05;32.00;28.67;13.00
72031;PMS5003;49185;42.320;23.198;2023-09-18T04:19:31;29.67;26.00;10.00
72031;PMS5003;49185;42.320;23.198;2023-09-18T04:21:56;31.67;27.67;10.00
72031;PMS5003;49185;42.320;23.198;2023-09-18T04:24:22;35.00;29.25;12.75
72031;PMS5003;49185;42.320;23.198;2023-09-18T04:26:48;35.00;29.00;14.00
72031;PMS5003;49185;42.320;23.198;2023-09-18T04:29:14;30.50;28.25;12.00
72031;PMS5003;49185;42.320;23.198;2023-09-18T04:31:39;28.00;26.00;11.67
72031;PMS5003;49185;42.320;23.198;2023-09-18T04:34:05;27.33;26.00;12.00
72031;PMS5003;49185;42.320;23.198;2023-09-18T04:36:30;24.67;24.67;10.00
72031;PMS5003;49185;42.320;23.198;2023-09-18T04:38:56;25.00;23.00;8.00
72031;PMS5003;49185;42.320;23.198;2023-09-18T04:41:21;24.00;22.67;9.00
72031;PMS5003;49185;42.320;23.198;2023-09-18T04:43:47;25.67;23.00;7.00
72031;PMS5003;49185;42.320;23.198;2023-09-18T04:46:12;26.67;24.00;8.67
72031;PMS5003;49185;42.320;23.198;2023-09-18T04:48:37;25.33;23.00;9.67
72031;PMS5003;49185;42.320;23.198;2023-09-18T04:51:03;24.67;22.00;9.00
72031;PMS5003;49185;42.320;23.198;2023-09-18T04:53:29;28.00;25.25;12.25
72031;PMS5003;49185;42.320;23.198;2023-09-18T04:55:56;30.25;28.00;16.00
72031;PMS5003;49185;42.320;23.198;2023-09-18T04:58:22;31.00;28.00;16.00
72031;PMS5003;49185;42.320;23.198;2023-09-18T05:00:57;30.67;27.00;14.67
72031;PMS5003;49185;42.320;23.198;2023-09-18T05:03:23;32.00;27.00;15.00
72031;PMS5003;49185;42.320;23.198;2023-09-18T05:05:49;30.50;26.00;14.75
72031;PMS5003;49185;42.320;23.198;2023-09-18T05:08:14;33.33;30.00;15.00
72031;PMS5003;49185;42.320;23.198;2023-09-18T05:10:40;33.00;30.67;15.00
72031;PMS5003;49185;42.320;23.198;2023-09-18T05:13:05;34.00;31.00;15.00
72031;PMS5003;49185;42.320;23.198;2023-09-18T05:15:31;31.67;28.67;16.00
72031;PMS5003;49185;42.320;23.198;2023-09-18T05:17:57;31.33;29.00;16.00
72031;PMS5003;49185;42.320;23.198;2023-09-18T05:20:24;36.50;30.50;16.00
72031;PMS5003;49185;42.320;23.198;2023-09-18T05:22:51;31.00;28.50;15.00
72031;PMS5003;49185;42.320;23.198;2023-09-18T05:25:17;31.25;29.00;15.00
72031;PMS5003;49185;42.320;23.198;2023-09-18T05:27:42;32.00;29.00;15.33
72031;PMS5003;49185;42.320;23.198;2023-09-18T05:30:08;30.33;28.00;16.00
72031;PMS5003;49185;42.320;23.198;2023-09-18T05:32:34;34.75;30.00;16.50
72031;PMS5003;49185;42.320;23.198;2023-09-18T05:34:59;34.00;30.00;18.00
72031;PMS5003;49185;42.320;23.198;2023-09-18T05:37:25;34.00;30.00;18.00
72031;PMS5003;49185;42.320;23.198;2023-09-18T05:39:50;32.00;30.00;17.00
72031;PMS5003;49185;42.320;23.198;2023-09-18T05:42:16;32.00;28.00;15.00
72031;PMS5003;49185;42.320;23.198;2023-09-18T05:44:41;32.00;28.00;16.00
72031;PMS5003;49185;42.320;23.198;2023-09-18T05:47:07;32.00;27.00;15.00
72031;PMS5003;49185;42.320;23.198;2023-09-18T05:49:32;33.00;27.00;15.00
72031;PMS5003;49185;42.320;23.198;2023-09-18T05:51:57;32.00;28.00;14.00
72031;PMS5003;49185;42.320;23.198;2023-09-18T05:54:23;29.00;27.00;13.00
72031;PMS5003;49185;42.320;23.198;2023-09-18T05:56:48;29.00;27.00;15.00
72031;PMS5003;49185;42.320;23.198;2023-09-18T05:59:13;29.00;27.00;15.00
72031;PMS5003;49185;42.320;23.198;2023-09-18T06:01:39;26.00;24.00;15.00
72031;PMS5003;49185;42.320;23.198;2023-09-18T06:04:04;27.67;25.00;14.00
72031;PMS5003;49185;42.320;23.198;2023-09-18T06:06:30;29.00;25.00;13.00
72031;PMS5003;49185;42.320;23.198;2023-09-18T06:08:55;25.00;24.00;10.67
72031;PMS5003;49185;42.320;23.198;2023-09-18T06:11:20;23.00;22.00;10.00
72031;PMS5003;49185;42.320;23.198;2023-09-18T06:13:46;21.00;21.00;11.00
72031;PMS5003;49185;42.320;23.198;2023-09-18T06:16:11;23.33;21.33;9.00
72031;PMS5003;49185;42.320;23.198;2023-09-18T06:18:37;25.00;22.00;9.33
72031;PMS5003;49185;42.320;23.198;2023-09-18T06:21:02;23.00;23.00;10.33
72031;PMS5003;49185;42.320;23.198;2023-09-18T06:23:28;23.67;23.00;10.67
72031;PMS5003;49185;42.320;23.198;2023-09-18T06:25:53;25.67;23.00;9.00
72031;PMS5003;49185;42.320;23.198;2023-09-18T06:28:18;25.00;24.00;11.00
72031;PMS5003;49185;42.320;23.198;2023-09-18T06:30:44;26.00;24.00;10.00
72031;PMS5003;49185;42.320;23.198;2023-09-18T06:33:09;25.00;23.00;11.33
72031;PMS5003;49185;42.320;23.198;2023-09-18T06:35:35;26.33;25.00;12.00
72031;PMS5003;49185;42.320;23.198;2023-09-18T06:38:00;25.00;22.00;10.00
72031;PMS5003;49185;42.320;23.198;2023-09-18T06:40:25;22.67;22.00;8.00
72031;PMS5003;49185;42.320;23.198;2023-09-18T06:42:51;22.67;21.67;10.67
72031;PMS5003;49185;42.320;23.198;2023-09-18T06:45:16;24.00;24.00;11.33
72031;PMS5003;49185;42.320;23.198;2023-09-18T06:47:42;23.00;21.00;11.00
72031;PMS5003;49185;42.320;23.198;2023-09-18T06:50:07;23.00;22.00;10.00
72031;PMS5003;49185;42.320;23.198;2023-09-18T06:52:33;21.33;20.00;8.00
72031;PMS5003;49185;42.320;23.198;2023-09-18T06:54:58;24.67;20.00;9.00
72031;PMS5003;49185;42.320;23.198;2023-09-18T06:57:24;21.67;18.00;8.00
72031;PMS5003;49185;42.320;23.198;2023-09-18T06:59:49;23.67;20.33;9.00
72031;PMS5003;49185;42.320;23.198;2023-09-18T07:02:15;23.00;21.00;10.00
72031;PMS5003;49185;42.320;23.198;2023-09-18T07:04:41;22.00;21.00;9.00
72031;PMS5003;49185;42.320;23.198;2023-09-18T07:07:06;25.00;22.00;10.75
72031;PMS5003;49185;42.320;23.198;2023-09-18T07:09:32;23.67;21.33;8.67
72031;PMS5003;49185;42.320;23.198;2023-09-18T07:11:57;26.00;23.00;9.00
72031;PMS5003;49185;42.320;23.198;2023-09-18T07:14:22;23.00;20.00;8.00
72031;PMS5003;49185;42.320;23.198;2023-09-18T07:16:48;24.67;22.00;8.00
72031;PMS5003;49185;42.320;23.198;2023-09-18T07:19:13;22.33;21.00;9.00
72031;PMS5003;49185;42.320;23.198;2023-09-18T07:21:39;24.00;22.00;8.67
72031;PMS5003;49185;42.320;23.198;2023-09-18T07:24:04;25.00;23.00;11.00
72031;PMS5003;49185;42.320;23.198;2023-09-18T07:26:30;24.67;22.00;8.00
72031;PMS5003;49185;42.320;23.198;2023-09-18T07:28:55;23.00;22.00;9.67
72031;PMS5003;49185;42.320;23.198;2023-09-18T07:31:21;24.00;23.00;9.00
72031;PMS5003;49185;42.320;23.198;2023-09-18T07:33:46;26.00;22.67;6.33
72031;PMS5003;49185;42.320;23.198;2023-09-18T07:36:11;25.00;22.00;9.00
72031;PMS5003;49185;42.320;23.198;2023-09-18T07:38:37;25.33;22.00;9.00
72031;PMS5003;49185;42.320;23.198;2023-09-18T07:41:02;22.00;18.00;7.00
72031;PMS5003;49185;42.320;23.198;2023-09-18T07:43:28;21.33;19.00;8.00
72031;PMS5003;49185;42.320;23.198;2023-09-18T07:45:53;21.33;20.00;7.67
72031;PMS5003;49185;42.320;23.198;2023-09-18T07:48:19;22.00;21.00;9.00
72031;PMS5003;49185;42.320;23.198;2023-09-18T07:50:44;21.00;21.00;9.00
72031;PMS5003;49185;42.320;23.198;2023-09-18T07:53:10;23.00;23.00;9.00
72031;PMS5003;49185;42.320;23.198;2023-09-18T07:55:35;22.00;22.00;8.00
72031;PMS5003;49185;42.320;23.198;2023-09-18T07:58:01;23.00;21.00;8.00
72031;PMS5003;49185;42.320;23.198;2023-09-18T08:00:26;22.67;21.67;9.00
72031;PMS5003;49185;42.320;23.198;2023-09-18T08:02:53;26.00;22.00;10.00
72031;PMS5003;49185;42.320;23.198;2023-09-18T08:05:19;25.00;19.75;9.00
72031;PMS5003;49185;42.320;23.198;2023-09-18T08:07:45;24.00;21.33;8.33
72031;PMS5003;49185;42.320;23.198;2023-09-18T08:10:10;23.33;23.33;9.00
72031;PMS5003;49185;42.320;23.198;2023-09-18T08:12:36;22.00;22.00;9.00
72031;PMS5003;49185;42.320;23.198;2023-09-18T08:15:02;25.00;22.00;10.33
72031;PMS5003;49185;42.320;23.198;2023-09-18T08:17:27;24.00;23.00;10.00
72031;PMS5003;49185;42.320;23.198;2023-09-18T08:19:53;24.33;24.00;9.00
72031;PMS5003;49185;42.320;23.198;2023-09-18T08:22:19;23.00;21.00;9.00
72031;PMS5003;49185;42.320;23.198;2023-09-18T08:24:45;22.00;20.75;8.00
72031;PMS5003;49185;42.320;23.198;2023-09-18T08:27:13;24.25;21.75;7.00
72031;PMS5003;49185;42.320;23.198;2023-09-18T08:29:39;24.00;21.00;8.00
72031;PMS5003;49185;42.320;23.198;2023-09-18T08:32:05;24.00;22.00;10.00
72031;PMS5003;49185;42.320;23.198;2023-09-18T08:34:30;24.00;24.00;9.00
72031;PMS5003;49185;42.320;23.198;2023-09-18T08:36:55;24.00;22.00;9.00
72031;PMS5003;49185;42.320;23.198;2023-09-18T08:39:21;25.67;20.00;8.00
72031;PMS5003;49185;42.320;23.198;2023-09-18T08:41:47;23.00;21.00;7.00
72031;PMS5003;49185;42.320;23.198;2023-09-18T08:44:16;23.00;22.00;8.25
72031;PMS5003;49185;42.320;23.198;2023-09-18T08:46:43;23.25;22.75;9.00
72031;PMS5003;49185;42.320;23.198;2023-09-18T08:49:09;22.25;21.00;7.00
72031;PMS5003;49185;42.320;23.198;2023-09-18T08:51:37;23.00;23.00;9.00
72031;PMS5003;49185;42.320;23.198;2023-09-18T08:54:04;20.25;20.25;8.75
72031;PMS5003;49185;42.320;23.198;2023-09-18T08:56:31;20.50;20.50;9.50
72031;PMS5003;49185;42.320;23.198;2023-09-18T08:58:57;20.00;20.00;8.00
72031;PMS5003;49185;42.320;23.198;2023-09-18T09:01:23;21.00;20.00;6.00
72031;PMS5003;49185;42.320;23.198;2023-09-18T09:03:48;19.00;18.00;6.00
72031;PMS5003;49185;42.320;23.198;2023-09-18T09:06:14;17.00;16.33;7.00
72031;PMS5003;49185;42.320;23.198;2023-09-18T09:08:39;17.75;17.75;7.00
72031;PMS5003;49185;42.320;23.198;2023-09-18T09:11:05;22.00;20.00;7.00
72031;PMS5003;49185;42.320;23.198;2023-09-18T09:13:31;23.67;21.00;7.33
72031;PMS5003;49185;42.320;23.198;2023-09-18T09:15:57;26.25;22.50;8.00
72031;PMS5003;49185;42.320;23.198;2023-09-18T09:18:24;25.25;21.00;8.00
72031;PMS5003;49185;42.320;23.198;2023-09-18T09:20:55;22.75;20.25;8.75
72031;PMS5003;49185;42.320;23.198;2023-09-18T09:23:22;23.00;22.25;8.25
72031;PMS5003;49185;42.320;23.198;2023-09-18T09:25:48;23.25;21.25;8.00
72031;PMS5003;49185;42.320;23.198;2023-09-18T09:28:13;25.00;21.00;10.00
72031;PMS5003;49185;42.320;23.198;2023-09-18T09:30:39;20.67;18.67;7.00
72031;PMS5003;49185;42.320;23.198;2023-09-18T09:33:05;15.00;13.67;5.00
72031;PMS5003;49185;42.320;23.198;2023-09-18T09:35:32;14.00;12.00;3.00
72031;PMS5003;49185;42.320;23.198;2023-09-18T09:38:08;15.00;14.00;4.50
72031;PMS5003;49185;42.320;23.198;2023-09-18T09:40:34;14.50;13.50;5.50
72031;PMS5003;49185;42.320;23.198;2023-09-18T09:43:03;15.25;14.00;5.00
72031;PMS5003;49185;42.320;23.198;2023-09-18T09:45:29;15.00;13.33;4.00
72031;PMS5003;49185;42.320;23.198;2023-09-18T09:47:56;11.75;10.75;4.00
72031;PMS5003;49185;42.320;23.198;2023-09-18T09:50:22;13.00;11.50;5.00
72031;PMS5003;49185;42.320;23.198;2023-09-18T09:52:49;15.00;14.00;4.00
72031;PMS5003;49185;42.320;23.198;2023-09-18T09:57:48;13.00;12.25;4.00
72031;PMS5003;49185;42.320;23.198;2023-09-18T10:00:15;12.00;10.00;4.00
72031;PMS5003;49185;42.320;23.198;2023-09-18T10:02:40;9.00;8.00;2.00
72031;PMS5003;49185;42.320;23.198;2023-09-18T10:05:06;9.67;9.67;3.33
72031;PMS5003;49185;42.320;23.198;2023-09-18T10:07:31;11.00;9.00;3.00
72031;PMS5003;49185;42.320;23.198;2023-09-18T10:09:57;8.00;7.00;3.00
72031;PMS5003;49185;42.320;23.198;2023-09-18T10:12:23;8.00;8.00;3.50
72031;PMS5003;49185;42.320;23.198;2023-09-18T10:14:49;8.50;8.50;2.00
72031;PMS5003;49185;42.320;23.198;2023-09-18T10:17:18;9.50;9.50;5.00
72031;PMS5003;49185;42.320;23.198;2023-09-18T10:22:47;8.25;8.25;4.00
72031;PMS5003;49185;42.320;23.198;2023-09-18T10:25:10;8.00;7.00;3.00
72031;PMS5003;49185;42.320;23.198;2023-09-18T10:27:39;6.25;6.25;3.00
72031;PMS5003;49185;42.320;23.198;2023-09-18T10:30:06;9.50;9.50;5.00
72031;PMS5003;49185;42.320;23.198;2023-09-18T10:32:34;8.00;8.00;4.00
72031;PMS5003;49185;42.320;23.198;2023-09-18T10:35:00;9.75;9.25;4.00
72031;PMS5003;49185;42.320;23.198;2023-09-18T10:37:26;10.00;9.00;4.00
72031;PMS5003;49185;42.320;23.198;2023-09-18T10:39:53;8.00;8.00;5.00
72031;PMS5003;49185;42.320;23.198;2023-09-18T10:42:21;8.00;7.00;3.00
72031;PMS5003;49185;42.320;23.198;2023-09-18T10:44:48;9.00;7.75;2.50
72031;PMS5003;49185;42.320;23.198;2023-09-18T10:47:14;8.50;7.50;2.00
72031;PMS5003;49185;42.320;23.198;2023-09-18T10:49:40;7.00;7.00;1.00
72031;PMS5003;49185;42.320;23.198;2023-09-18T10:52:06;8.00;8.00;3.33
72031;PMS5003;49185;42.320;23.198;2023-09-18T10:54:37;8.00;8.00;3.00
72031;PMS5003;49185;42.320;23.198;2023-09-18T10:57:02;7.50;7.00;3.00
72031;PMS5003;49185;42.320;23.198;2023-09-18T10:59:28;7.00;6.00;3.00
72031;PMS5003;49185;42.320;23.198;2023-09-18T11:01:53;6.00;5.33;3.33
72031;PMS5003;49185;42.320;23.198;2023-09-18T11:04:20;7.00;7.00;3.00
72031;PMS5003;49185;42.320;23.198;2023-09-18T11:09:27;6.00;6.00;4.00
72031;PMS5003;49185;42.320;23.198;2023-09-18T11:12:01;7.00;7.00;3.00
72031;PMS5003;49185;42.320;23.198;2023-09-18T11:14:48;7.00;7.00;4.00
72031;PMS5003;49185;42.320;23.198;2023-09-18T11:17:33;8.00;6.25;4.00
72031;PMS5003;49185;42.320;23.198;2023-09-18T11:22:39;7.75;7.00;2.00
72031;PMS5003;49185;42.320;23.198;2023-09-18T11:27:59;7.00;6.75;3.75
72031;PMS5003;49185;42.320;23.198;2023-09-18T11:30:26;7.00;7.00;4.00
72031;PMS5003;49185;42.320;23.198;2023-09-18T11:32:52;10.00;8.75;3.75
72031;PMS5003;49185;42.320;23.198;2023-09-18T11:35:19;8.00;7.25;3.00
72031;PMS5003;49185;42.320;23.198;2023-09-18T11:37:50;8.00;6.00;2.00
72031;PMS5003;49185;42.320;23.198;2023-09-18T11:40:35;5.00;5.00;2.50
72031;PMS5003;49185;42.320;23.198;2023-09-18T11:45:49;6.25;5.50;3.00
72031;PMS5003;49185;42.320;23.198;2023-09-18T11:48:15;9.75;8.75;4.00
72031;PMS5003;49185;42.320;23.198;2023-09-18T11:50:41;10.00;9.75;4.00
72031;PMS5003;49185;42.320;23.198;2023-09-18T11:53:08;10.25;10.25;5.00
72031;PMS5003;49185;42.320;23.198;2023-09-18T11:55:33;23.00;22.67;12.00
72031;PMS5003;49185;42.320;23.198;2023-09-18T11:57:59;19.67;19.67;9.67
72031;PMS5003;49185;42.320;23.198;2023-09-18T12:00:25;16.67;16.67;6.33
72031;PMS5003;49185;42.320;23.198;2023-09-18T12:02:50;14.00;13.00;5.00
72031;PMS5003;49185;42.320;23.198;2023-09-18T12:05:18;14.33;13.00;5.00
72031;PMS5003;49185;42.320;23.198;2023-09-18T12:07:44;15.00;15.00;6.00
72031;PMS5003;49185;42.320;23.198;2023-09-18T12:10:14;16.25;15.00;6.50
72031;PMS5003;49185;42.320;23.198;2023-09-18T12:12:41;15.50;15.00;7.00
72031;PMS5003;49185;42.320;23.198;2023-09-18T12:15:08;18.00;16.50;9.00
72031;PMS5003;49185;42.320;23.198;2023-09-18T12:17:36;17.50;17.00;8.50
72031;PMS5003;49185;42.320;23.198;2023-09-18T12:20:02;17.00;17.00;7.00
72031;PMS5003;49185;42.320;23.198;2023-09-18T12:22:28;15.50;15.25;7.00
72031;PMS5003;49185;42.320;23.198;2023-09-18T12:25:10;18.00;16.50;7.25
72031;PMS5003;49185;42.320;23.198;2023-09-18T12:27:39;17.00;16.00;6.00
72031;PMS5003;49185;42.320;23.198;2023-09-18T12:30:08;14.00;13.00;5.00
72031;PMS5003;49185;42.320;23.198;2023-09-18T12:32:37;14.75;14.75;9.00
72031;PMS5003;49185;42.320;23.198;2023-09-18T12:35:06;17.00;17.00;7.00
72031;PMS5003;49185;42.320;23.198;2023-09-18T12:37:32;18.00;15.75;8.00
72031;PMS5003;49185;42.320;23.198;2023-09-18T12:39:59;18.00;16.00;7.00
72031;PMS5003;49185;42.320;23.198;2023-09-18T12:42:24;16.00;15.00;7.00
72031;PMS5003;49185;42.320;23.198;2023-09-18T12:44:51;16.25;15.00;7.00
72031;PMS5003;49185;42.320;23.198;2023-09-18T12:47:16;18.00;16.00;7.67
72031;PMS5003;49185;42.320;23.198;2023-09-18T12:49:42;18.00;17.67;8.00
72031;PMS5003;49185;42.320;23.198;2023-09-18T12:52:07;18.00;17.00;8.00
72031;PMS5003;49185;42.320;23.198;2023-09-18T12:54:43;18.00;16.00;7.00
72031;PMS5003;49185;42.320;23.198;2023-09-18T12:57:10;18.00;15.75;7.50
72031;PMS5003;49185;42.320;23.198;2023-09-18T12:59:36;18.00;15.25;7.00
72031;PMS5003;49185;42.320;23.198;2023-09-18T13:02:02;18.00;17.00;8.00
72031;PMS5003;49185;42.320;23.198;2023-09-18T13:04:28;19.00;18.00;8.00
72031;PMS5003;49185;42.320;23.198;2023-09-18T13:07:06;17.00;17.00;6.67
72031;PMS5003;49185;42.320;23.198;2023-09-18T13:09:32;17.00;17.00;7.00
72031;PMS5003;49185;42.320;23.198;2023-09-18T13:11:58;18.00;17.00;9.00
72031;PMS5003;49185;42.320;23.198;2023-09-18T13:14:23;17.00;16.00;8.00
72031;PMS5003;49185;42.320;23.198;2023-09-18T13:16:49;16.00;15.00;7.25
72031;PMS5003;49185;42.320;23.198;2023-09-18T13:19:15;16.33;16.33;6.67
72031;PMS5003;49185;42.320;23.198;2023-09-18T13:21:49;18.00;18.00;6.00
72031;PMS5003;49185;42.320;23.198;2023-09-18T13:24:25;18.00;18.00;8.00
72031;PMS5003;49185;42.320;23.198;2023-09-18T13:26:52;18.00;17.00;8.00
72031;PMS5003;49185;42.320;23.198;2023-09-18T13:29:18;17.00;17.00;9.00
72031;PMS5003;49185;42.320;23.198;2023-09-18T13:31:44;18.00;17.00;8.00
72031;PMS5003;49185;42.320;23.198;2023-09-18T13:34:09;17.00;16.00;5.67
72031;PMS5003;49185;42.320;23.198;2023-09-18T13:36:35;17.00;16.00;7.00
72031;PMS5003;49185;42.320;23.198;2023-09-18T13:39:00;19.00;17.00;8.67
72031;PMS5003;49185;42.320;23.198;2023-09-18T13:41:25;16.00;15.00;7.00
72031;PMS5003;49185;42.320;23.198;2023-09-18T13:43:51;16.00;15.33;6.67
72031;PMS5003;49185;42.320;23.198;2023-09-18T13:46:16;16.00;15.00;7.00
72031;PMS5003;49185;42.320;23.198;2023-09-18T13:48:42;18.00;16.67;7.00
72031;PMS5003;49185;42.320;23.198;2023-09-18T13:51:07;17.00;16.00;7.00
72031;PMS5003;49185;42.320;23.198;2023-09-18T13:53:33;19.00;17.00;8.33
72031;PMS5003;49185;42.320;23.198;2023-09-18T13:55:58;16.00;15.00;8.00
72031;PMS5003;49185;42.320;23.198;2023-09-18T13:58:24;13.00;12.00;6.00